sensor_id;sensor_type;location;lat;lon;timestamp;P1;durP1;ratioP1;P2;durP2;ratioP2
450;SDS011;212;48.748;9.174;2022-09-13T00:00:17;3.20;;;2.83;;
450;SDS011;212;48.748;9.174;2022-09-13T00:02:46;3.17;;;2.97;;
450;SDS011;212;48.748;9.174;2022-09-13T00:05:12;2.83;;;2.63;;
450;SDS011;212;48.748;9.174;2022-09-13T00:07:39;2.77;;;2.57;;
450;SDS011;212;48.748;9.174;2022-09-13T00:10:06;2.77;;;2.47;;
450;SDS011;212;48.748;9.174;2022-09-13T00:12:33;2.37;;;2.23;;
450;SDS011;212;48.748;9.174;2022-09-13T00:15:00;5.50;;;2.00;;
450;SDS011;212;48.748;9.174;2022-09-13T00:17:27;2.77;;;2.57;;
450;SDS011;212;48.748;9.174;2022-09-13T00:19:55;3.10;;;2.27;;
450;SDS011;212;48.748;9.174;2022-09-13T00:22:22;2.47;;;2.27;;
450;SDS011;212;48.748;9.174;2022-09-13T00:24:49;2.47;;;2.27;;
450;SDS011;212;48.748;9.174;2022-09-13T00:27:15;2.57;;;2.37;;
450;SDS011;212;48.748;9.174;2022-09-13T00:29:42;2.70;;;2.50;;
450;SDS011;212;48.748;9.174;2022-09-13T00:32:09;2.63;;;2.43;;
450;SDS011;212;48.748;9.174;2022-09-13T00:34:35;2.43;;;2.30;;
450;SDS011;212;48.748;9.174;2022-09-13T00:37:03;2.50;;;2.30;;
450;SDS011;212;48.748;9.174;2022-09-13T00:39:30;2.30;;;2.10;;
450;SDS011;212;48.748;9.174;2022-09-13T00:41:57;2.43;;;2.23;;
450;SDS011;212;48.748;9.174;2022-09-13T00:44:48;1.80;;;1.70;;
450;SDS011;212;48.748;9.174;2022-09-13T00:47:20;2.67;;;2.47;;
450;SDS011;212;48.748;9.174;2022-09-13T00:49:50;2.23;;;2.03;;
450;SDS011;212;48.748;9.174;2022-09-13T00:52:22;1.90;;;1.80;;
450;SDS011;212;48.748;9.174;2022-09-13T00:54:53;2.73;;;2.00;;
450;SDS011;212;48.748;9.174;2022-09-13T00:57:24;1.80;;;1.70;;
450;SDS011;212;48.748;9.174;2022-09-13T00:59:53;2.80;;;2.40;;
450;SDS011;212;48.748;9.174;2022-09-13T01:02:24;4.13;;;2.10;;
450;SDS011;212;48.748;9.174;2022-09-13T01:04:51;2.43;;;2.23;;
450;SDS011;212;48.748;9.174;2022-09-13T01:07:18;2.60;;;2.33;;
450;SDS011;212;48.748;9.174;2022-09-13T01:09:46;2.40;;;2.07;;
450;SDS011;212;48.748;9.174;2022-09-13T01:12:16;2.50;;;2.30;;
450;SDS011;212;48.748;9.174;2022-09-13T01:14:55;2.00;;;1.90;;
450;SDS011;212;48.748;9.174;2022-09-13T01:17:24;2.20;;;2.00;;
450;SDS011;212;48.748;9.174;2022-09-13T01:19:52;2.47;;;2.27;;
450;SDS011;212;48.748;9.174;2022-09-13T01:25:36;2.90;;;2.10;;
450;SDS011;212;48.748;9.174;2022-09-13T01:28:17;2.23;;;2.10;;
450;SDS011;212;48.748;9.174;2022-09-13T01:30:57;3.00;;;1.60;;
450;SDS011;212;48.748;9.174;2022-09-13T01:33:37;3.53;;;1.93;;
450;SDS011;212;48.748;9.174;2022-09-13T01:36:18;2.80;;;2.10;;
450;SDS011;212;48.748;9.174;2022-09-13T01:38:58;1.90;;;1.70;;
450;SDS011;212;48.748;9.174;2022-09-13T01:41:33;1.90;;;1.83;;
450;SDS011;212;48.748;9.174;2022-09-13T01:44:17;2.60;;;2.40;;
450;SDS011;212;48.748;9.174;2022-09-13T01:46:58;1.90;;;1.80;;
450;SDS011;212;48.748;9.174;2022-09-13T01:49:30;2.30;;;2.10;;
450;SDS011;212;48.748;9.174;2022-09-13T01:52:09;1.70;;;1.60;;
450;SDS011;212;48.748;9.174;2022-09-13T01:54:44;1.50;;;1.40;;
450;SDS011;212;48.748;9.174;2022-09-13T01:57:18;1.67;;;1.57;;
450;SDS011;212;48.748;9.174;2022-09-13T01:59:51;4.43;;;2.03;;
450;SDS011;212;48.748;9.174;2022-09-13T02:02:22;5.53;;;2.00;;
450;SDS011;212;48.748;9.174;2022-09-13T02:04:55;5.33;;;1.60;;
450;SDS011;212;48.748;9.174;2022-09-13T02:07:28;3.13;;;2.10;;
450;SDS011;212;48.748;9.174;2022-09-13T02:10:02;1.83;;;1.73;;
450;SDS011;212;48.748;9.174;2022-09-13T02:12:33;3.73;;;2.00;;
450;SDS011;212;48.748;9.174;2022-09-13T02:15:03;1.87;;;1.77;;
450;SDS011;212;48.748;9.174;2022-09-13T02:17:37;3.23;;;2.17;;
450;SDS011;212;48.748;9.174;2022-09-13T02:20:08;2.20;;;2.00;;
450;SDS011;212;48.748;9.174;2022-09-13T02:22:42;2.67;;;2.47;;
450;SDS011;212;48.748;9.174;2022-09-13T02:25:12;2.13;;;1.97;;
450;SDS011;212;48.748;9.174;2022-09-13T02:27:42;3.70;;;2.00;;
450;SDS011;212;48.748;9.174;2022-09-13T02:30:13;2.27;;;2.07;;
450;SDS011;212;48.748;9.174;2022-09-13T02:32:44;3.40;;;2.20;;
450;SDS011;212;48.748;9.174;2022-09-13T02:35:15;2.53;;;2.00;;
450;SDS011;212;48.748;9.174;2022-09-13T02:37:46;3.60;;;1.97;;
450;SDS011;212;48.748;9.174;2022-09-13T02:40:16;5.10;;;2.57;;
450;SDS011;212;48.748;9.174;2022-09-13T02:42:49;2.53;;;2.20;;
450;SDS011;212;48.748;9.174;2022-09-13T02:45:19;2.23;;;1.77;;
450;SDS011;212;48.748;9.174;2022-09-13T02:47:53;2.40;;;2.20;;
450;SDS011;212;48.748;9.174;2022-09-13T02:50:32;2.30;;;2.10;;
450;SDS011;212;48.748;9.174;2022-09-13T02:53:08;2.57;;;2.37;;
450;SDS011;212;48.748;9.174;2022-09-13T02:55:41;3.00;;;2.80;;
450;SDS011;212;48.748;9.174;2022-09-13T02:58:11;2.27;;;2.00;;
450;SDS011;212;48.748;9.174;2022-09-13T03:00:45;3.60;;;3.13;;
450;SDS011;212;48.748;9.174;2022-09-13T03:03:13;2.63;;;2.43;;
450;SDS011;212;48.748;9.174;2022-09-13T03:05:41;3.27;;;2.73;;
450;SDS011;212;48.748;9.174;2022-09-13T03:08:09;3.53;;;2.30;;
450;SDS011;212;48.748;9.174;2022-09-13T03:10:41;2.50;;;2.30;;
450;SDS011;212;48.748;9.174;2022-09-13T03:13:19;3.10;;;2.90;;
450;SDS011;212;48.748;9.174;2022-09-13T03:16:04;4.80;;;2.83;;
450;SDS011;212;48.748;9.174;2022-09-13T03:18:43;2.87;;;2.67;;
450;SDS011;212;48.748;9.174;2022-09-13T03:21:18;4.10;;;2.80;;
450;SDS011;212;48.748;9.174;2022-09-13T03:23:57;4.20;;;2.30;;
450;SDS011;212;48.748;9.174;2022-09-13T03:26:41;2.50;;;2.30;;
450;SDS011;212;48.748;9.174;2022-09-13T03:32:06;2.80;;;2.60;;
450;SDS011;212;48.748;9.174;2022-09-13T03:34:44;3.67;;;2.30;;
450;SDS011;212;48.748;9.174;2022-09-13T03:37:21;3.30;;;3.10;;
450;SDS011;212;48.748;9.174;2022-09-13T03:39:51;4.20;;;2.33;;
450;SDS011;212;48.748;9.174;2022-09-13T03:42:27;2.10;;;2.00;;
450;SDS011;212;48.748;9.174;2022-09-13T03:44:56;3.10;;;2.90;;
450;SDS011;212;48.748;9.174;2022-09-13T03:47:24;2.67;;;2.20;;
450;SDS011;212;48.748;9.174;2022-09-13T03:49:54;3.40;;;2.77;;
450;SDS011;212;48.748;9.174;2022-09-13T03:52:22;6.50;;;3.23;;
450;SDS011;212;48.748;9.174;2022-09-13T03:54:49;2.90;;;2.70;;
450;SDS011;212;48.748;9.174;2022-09-13T03:57:18;3.00;;;2.80;;
450;SDS011;212;48.748;9.174;2022-09-13T03:59:47;4.37;;;2.40;;
450;SDS011;212;48.748;9.174;2022-09-13T04:02:14;2.80;;;2.60;;
450;SDS011;212;48.748;9.174;2022-09-13T04:04:42;3.67;;;3.47;;
450;SDS011;212;48.748;9.174;2022-09-13T04:07:12;3.30;;;3.10;;
450;SDS011;212;48.748;9.174;2022-09-13T04:09:40;4.20;;;2.77;;
450;SDS011;212;48.748;9.174;2022-09-13T04:12:06;3.20;;;3.00;;
450;SDS011;212;48.748;9.174;2022-09-13T04:14:34;4.03;;;3.10;;
450;SDS011;212;48.748;9.174;2022-09-13T04:17:01;2.87;;;2.67;;
450;SDS011;212;48.748;9.174;2022-09-13T04:19:27;2.63;;;2.43;;
450;SDS011;212;48.748;9.174;2022-09-13T04:21:55;3.00;;;2.47;;
450;SDS011;212;48.748;9.174;2022-09-13T04:24:24;2.60;;;2.40;;
450;SDS011;212;48.748;9.174;2022-09-13T04:26:53;3.13;;;2.93;;
450;SDS011;212;48.748;9.174;2022-09-13T04:29:21;6.27;;;3.20;;
450;SDS011;212;48.748;9.174;2022-09-13T04:31:50;4.57;;;3.70;;
450;SDS011;212;48.748;9.174;2022-09-13T04:34:17;3.40;;;2.90;;
450;SDS011;212;48.748;9.174;2022-09-13T04:36:46;3.23;;;3.03;;
450;SDS011;212;48.748;9.174;2022-09-13T04:39:13;4.20;;;3.50;;
450;SDS011;212;48.748;9.174;2022-09-13T04:41:42;4.13;;;2.97;;
450;SDS011;212;48.748;9.174;2022-09-13T04:44:12;4.00;;;3.50;;
450;SDS011;212;48.748;9.174;2022-09-13T04:46:39;3.23;;;3.03;;
450;SDS011;212;48.748;9.174;2022-09-13T04:49:06;3.33;;;3.13;;
450;SDS011;212;48.748;9.174;2022-09-13T04:51:35;2.70;;;2.50;;
450;SDS011;212;48.748;9.174;2022-09-13T04:54:01;3.00;;;2.80;;
450;SDS011;212;48.748;9.174;2022-09-13T04:56:29;3.20;;;3.00;;
450;SDS011;212;48.748;9.174;2022-09-13T04:58:57;3.00;;;2.80;;
450;SDS011;212;48.748;9.174;2022-09-13T05:01:24;2.90;;;2.70;;
450;SDS011;212;48.748;9.174;2022-09-13T05:03:50;3.33;;;3.23;;
450;SDS011;212;48.748;9.174;2022-09-13T05:06:17;6.43;;;2.90;;
450;SDS011;212;48.748;9.174;2022-09-13T05:08:48;3.20;;;3.00;;
450;SDS011;212;48.748;9.174;2022-09-13T05:11:16;5.40;;;3.93;;
450;SDS011;212;48.748;9.174;2022-09-13T05:13:42;3.67;;;2.90;;
450;SDS011;212;48.748;9.174;2022-09-13T05:16:11;4.90;;;3.27;;
450;SDS011;212;48.748;9.174;2022-09-13T05:18:37;3.00;;;2.80;;
450;SDS011;212;48.748;9.174;2022-09-13T05:21:04;3.10;;;2.90;;
450;SDS011;212;48.748;9.174;2022-09-13T05:23:31;3.70;;;3.37;;
450;SDS011;212;48.748;9.174;2022-09-13T05:26:03;2.63;;;2.43;;
450;SDS011;212;48.748;9.174;2022-09-13T05:28:31;3.57;;;3.07;;
450;SDS011;212;48.748;9.174;2022-09-13T05:31:00;2.90;;;2.70;;
450;SDS011;212;48.748;9.174;2022-09-13T05:33:30;2.80;;;2.30;;
450;SDS011;212;48.748;9.174;2022-09-13T05:35:58;4.30;;;2.70;;
450;SDS011;212;48.748;9.174;2022-09-13T05:38:25;3.37;;;2.97;;
450;SDS011;212;48.748;9.174;2022-09-13T05:40:53;3.93;;;3.07;;
450;SDS011;212;48.748;9.174;2022-09-13T05:43:21;1.80;;;1.70;;
450;SDS011;212;48.748;9.174;2022-09-13T05:45:47;5.07;;;3.33;;
450;SDS011;212;48.748;9.174;2022-09-13T05:48:14;3.43;;;2.57;;
450;SDS011;212;48.748;9.174;2022-09-13T05:50:42;3.07;;;2.90;;
450;SDS011;212;48.748;9.174;2022-09-13T05:53:09;3.67;;;3.47;;
450;SDS011;212;48.748;9.174;2022-09-13T05:55:36;7.33;;;2.90;;
450;SDS011;212;48.748;9.174;2022-09-13T05:58:02;4.60;;;2.73;;
450;SDS011;212;48.748;9.174;2022-09-13T06:00:29;4.50;;;3.60;;
450;SDS011;212;48.748;9.174;2022-09-13T06:02:57;3.53;;;2.80;;
450;SDS011;212;48.748;9.174;2022-09-13T06:05:23;2.50;;;2.30;;
450;SDS011;212;48.748;9.174;2022-09-13T06:07:51;3.17;;;2.10;;
450;SDS011;212;48.748;9.174;2022-09-13T06:10:18;3.57;;;3.37;;
450;SDS011;212;48.748;9.174;2022-09-13T06:12:45;3.57;;;2.83;;
450;SDS011;212;48.748;9.174;2022-09-13T06:15:12;3.00;;;2.43;;
450;SDS011;212;48.748;9.174;2022-09-13T06:17:39;3.00;;;2.80;;
450;SDS011;212;48.748;9.174;2022-09-13T06:20:06;7.13;;;3.27;;
450;SDS011;212;48.748;9.174;2022-09-13T06:22:34;3.67;;;2.50;;
450;SDS011;212;48.748;9.174;2022-09-13T06:25:02;5.10;;;3.10;;
450;SDS011;212;48.748;9.174;2022-09-13T06:27:30;4.73;;;3.53;;
450;SDS011;212;48.748;9.174;2022-09-13T06:29:56;3.10;;;2.97;;
450;SDS011;212;48.748;9.174;2022-09-13T06:32:23;4.30;;;2.70;;
450;SDS011;212;48.748;9.174;2022-09-13T06:34:50;3.03;;;2.67;;
450;SDS011;212;48.748;9.174;2022-09-13T06:37:17;4.80;;;3.07;;
450;SDS011;212;48.748;9.174;2022-09-13T06:39:43;3.37;;;3.07;;
450;SDS011;212;48.748;9.174;2022-09-13T06:42:11;5.23;;;3.50;;
450;SDS011;212;48.748;9.174;2022-09-13T06:44:38;3.50;;;3.30;;
450;SDS011;212;48.748;9.174;2022-09-13T06:47:05;3.47;;;2.80;;
450;SDS011;212;48.748;9.174;2022-09-13T06:49:31;4.97;;;2.60;;
450;SDS011;212;48.748;9.174;2022-09-13T06:51:58;4.23;;;2.60;;
450;SDS011;212;48.748;9.174;2022-09-13T06:54:25;2.50;;;2.37;;
450;SDS011;212;48.748;9.174;2022-09-13T06:56:51;3.37;;;2.80;;
450;SDS011;212;48.748;9.174;2022-09-13T06:59:20;5.50;;;2.30;;
450;SDS011;212;48.748;9.174;2022-09-13T07:01:46;2.40;;;2.20;;
450;SDS011;212;48.748;9.174;2022-09-13T07:04:14;2.93;;;2.20;;
450;SDS011;212;48.748;9.174;2022-09-13T07:06:44;3.97;;;3.00;;
450;SDS011;212;48.748;9.174;2022-09-13T07:09:12;4.00;;;2.40;;
450;SDS011;212;48.748;9.174;2022-09-13T07:11:41;4.83;;;2.90;;
450;SDS011;212;48.748;9.174;2022-09-13T07:14:10;4.13;;;2.53;;
450;SDS011;212;48.748;9.174;2022-09-13T07:16:40;4.80;;;2.50;;
450;SDS011;212;48.748;9.174;2022-09-13T07:19:07;3.83;;;2.20;;
450;SDS011;212;48.748;9.174;2022-09-13T07:21:38;2.33;;;2.00;;
450;SDS011;212;48.748;9.174;2022-09-13T07:24:05;6.63;;;2.77;;
450;SDS011;212;48.748;9.174;2022-09-13T07:26:32;3.20;;;2.87;;
450;SDS011;212;48.748;9.174;2022-09-13T07:28:59;4.20;;;2.83;;
450;SDS011;212;48.748;9.174;2022-09-13T07:31:30;2.90;;;2.73;;
450;SDS011;212;48.748;9.174;2022-09-13T07:34:00;3.70;;;2.87;;
450;SDS011;212;48.748;9.174;2022-09-13T07:36:28;3.67;;;2.80;;
450;SDS011;212;48.748;9.174;2022-09-13T07:38:56;3.30;;;2.60;;
450;SDS011;212;48.748;9.174;2022-09-13T07:41:25;2.50;;;2.30;;
450;SDS011;212;48.748;9.174;2022-09-13T07:43:53;3.60;;;3.17;;
450;SDS011;212;48.748;9.174;2022-09-13T07:46:20;2.80;;;2.60;;
450;SDS011;212;48.748;9.174;2022-09-13T07:48:48;3.30;;;3.10;;
450;SDS011;212;48.748;9.174;2022-09-13T07:51:18;4.07;;;2.90;;
450;SDS011;212;48.748;9.174;2022-09-13T07:53:47;4.90;;;2.67;;
450;SDS011;212;48.748;9.174;2022-09-13T07:56:16;3.63;;;2.83;;
450;SDS011;212;48.748;9.174;2022-09-13T07:58:45;4.40;;;2.67;;
450;SDS011;212;48.748;9.174;2022-09-13T08:01:13;4.50;;;2.87;;
450;SDS011;212;48.748;9.174;2022-09-13T08:03:41;4.20;;;2.53;;
450;SDS011;212;48.748;9.174;2022-09-13T08:06:09;4.47;;;2.43;;
450;SDS011;212;48.748;9.174;2022-09-13T08:08:37;2.53;;;2.33;;
450;SDS011;212;48.748;9.174;2022-09-13T08:11:05;6.13;;;2.40;;
450;SDS011;212;48.748;9.174;2022-09-13T08:13:32;3.17;;;2.20;;
450;SDS011;212;48.748;9.174;2022-09-13T08:16:02;1.97;;;1.87;;
450;SDS011;212;48.748;9.174;2022-09-13T08:18:30;2.83;;;2.67;;
450;SDS011;212;48.748;9.174;2022-09-13T08:20:58;3.57;;;2.40;;
450;SDS011;212;48.748;9.174;2022-09-13T08:23:26;2.90;;;2.70;;
450;SDS011;212;48.748;9.174;2022-09-13T08:25:58;3.90;;;2.50;;
450;SDS011;212;48.748;9.174;2022-09-13T08:28:26;2.33;;;2.13;;
450;SDS011;212;48.748;9.174;2022-09-13T08:30:53;3.90;;;2.73;;
450;SDS011;212;48.748;9.174;2022-09-13T08:33:19;4.23;;;2.73;;
450;SDS011;212;48.748;9.174;2022-09-13T08:35:49;4.87;;;3.13;;
450;SDS011;212;48.748;9.174;2022-09-13T08:38:17;2.47;;;2.27;;
450;SDS011;212;48.748;9.174;2022-09-13T08:40:47;2.60;;;2.43;;
450;SDS011;212;48.748;9.174;2022-09-13T08:43:19;3.90;;;2.03;;
450;SDS011;212;48.748;9.174;2022-09-13T08:45:53;3.87;;;2.40;;
450;SDS011;212;48.748;9.174;2022-09-13T08:48:28;4.50;;;1.90;;
450;SDS011;212;48.748;9.174;2022-09-13T08:51:00;3.30;;;2.17;;
450;SDS011;212;48.748;9.174;2022-09-13T08:53:37;2.67;;;2.10;;
450;SDS011;212;48.748;9.174;2022-09-13T08:56:10;5.93;;;2.10;;
450;SDS011;212;48.748;9.174;2022-09-13T08:58:46;3.67;;;2.50;;
450;SDS011;212;48.748;9.174;2022-09-13T09:01:26;6.23;;;3.07;;
450;SDS011;212;48.748;9.174;2022-09-13T09:04:05;2.37;;;2.20;;
450;SDS011;212;48.748;9.174;2022-09-13T09:06:37;3.57;;;2.53;;
450;SDS011;212;48.748;9.174;2022-09-13T09:09:04;5.03;;;2.60;;
450;SDS011;212;48.748;9.174;2022-09-13T09:11:36;2.27;;;2.07;;
450;SDS011;212;48.748;9.174;2022-09-13T09:14:14;2.83;;;2.63;;
450;SDS011;212;48.748;9.174;2022-09-13T09:16:50;2.57;;;2.40;;
450;SDS011;212;48.748;9.174;2022-09-13T09:19:21;4.03;;;2.20;;
450;SDS011;212;48.748;9.174;2022-09-13T09:21:54;5.70;;;2.50;;
450;SDS011;212;48.748;9.174;2022-09-13T09:24:22;3.37;;;1.90;;
450;SDS011;212;48.748;9.174;2022-09-13T09:26:50;3.20;;;2.27;;
450;SDS011;212;48.748;9.174;2022-09-13T09:29:20;3.27;;;1.93;;
450;SDS011;212;48.748;9.174;2022-09-13T09:31:57;4.83;;;2.13;;
450;SDS011;212;48.748;9.174;2022-09-13T09:34:36;3.90;;;2.33;;
450;SDS011;212;48.748;9.174;2022-09-13T09:37:14;3.60;;;1.90;;
450;SDS011;212;48.748;9.174;2022-09-13T09:39:46;2.00;;;1.90;;
450;SDS011;212;48.748;9.174;2022-09-13T09:42:14;5.53;;;2.77;;
450;SDS011;212;48.748;9.174;2022-09-13T09:44:45;2.60;;;1.63;;
450;SDS011;212;48.748;9.174;2022-09-13T09:47:16;1.93;;;1.77;;
450;SDS011;212;48.748;9.174;2022-09-13T09:49:45;2.17;;;1.50;;
450;SDS011;212;48.748;9.174;2022-09-13T09:52:32;2.07;;;1.60;;
450;SDS011;212;48.748;9.174;2022-09-13T09:55:09;1.40;;;1.40;;
450;SDS011;212;48.748;9.174;2022-09-13T09:57:52;7.13;;;1.40;;
450;SDS011;212;48.748;9.174;2022-09-13T10:00:23;1.67;;;1.20;;
450;SDS011;212;48.748;9.174;2022-09-13T10:02:51;2.40;;;1.30;;
450;SDS011;212;48.748;9.174;2022-09-13T10:05:22;1.87;;;1.77;;
450;SDS011;212;48.748;9.174;2022-09-13T10:07:57;1.50;;;1.33;;
450;SDS011;212;48.748;9.174;2022-09-13T10:10:29;3.10;;;1.40;;
450;SDS011;212;48.748;9.174;2022-09-13T10:13:01;1.17;;;1.10;;
450;SDS011;212;48.748;9.174;2022-09-13T10:15:32;2.27;;;1.33;;
450;SDS011;212;48.748;9.174;2022-09-13T10:18:00;1.73;;;1.53;;
450;SDS011;212;48.748;9.174;2022-09-13T10:20:32;1.20;;;0.97;;
450;SDS011;212;48.748;9.174;2022-09-13T10:23:09;2.07;;;1.43;;
450;SDS011;212;48.748;9.174;2022-09-13T10:25:41;1.80;;;1.47;;
450;SDS011;212;48.748;9.174;2022-09-13T10:28:12;5.73;;;4.33;;
450;SDS011;212;48.748;9.174;2022-09-13T10:30:44;1.80;;;1.40;;
450;SDS011;212;48.748;9.174;2022-09-13T10:33:19;2.73;;;1.17;;
450;SDS011;212;48.748;9.174;2022-09-13T10:35:51;3.13;;;1.07;;
450;SDS011;212;48.748;9.174;2022-09-13T10:38:23;1.30;;;1.20;;
450;SDS011;212;48.748;9.174;2022-09-13T10:40:54;1.67;;;1.20;;
450;SDS011;212;48.748;9.174;2022-09-13T10:43:21;1.70;;;0.83;;
450;SDS011;212;48.748;9.174;2022-09-13T10:45:51;1.20;;;1.10;;
450;SDS011;212;48.748;9.174;2022-09-13T10:48:18;1.27;;;1.23;;
450;SDS011;212;48.748;9.174;2022-09-13T10:51:02;1.13;;;1.00;;
450;SDS011;212;48.748;9.174;2022-09-13T10:53:35;1.57;;;1.00;;
450;SDS011;212;48.748;9.174;2022-09-13T10:56:03;3.50;;;1.17;;
450;SDS011;212;48.748;9.174;2022-09-13T10:58:31;1.90;;;1.03;;
450;SDS011;212;48.748;9.174;2022-09-13T11:01:14;0.83;;;0.80;;
450;SDS011;212;48.748;9.174;2022-09-13T11:03:57;1.70;;;0.80;;
450;SDS011;212;48.748;9.174;2022-09-13T11:06:44;2.83;;;1.23;;
450;SDS011;212;48.748;9.174;2022-09-13T11:09:17;0.90;;;0.60;;
450;SDS011;212;48.748;9.174;2022-09-13T11:11:49;1.20;;;0.90;;
450;SDS011;212;48.748;9.174;2022-09-13T11:14:30;1.20;;;0.70;;
450;SDS011;212;48.748;9.174;2022-09-13T11:17:15;0.90;;;0.80;;
450;SDS011;212;48.748;9.174;2022-09-13T11:19:55;3.83;;;0.90;;
450;SDS011;212;48.748;9.174;2022-09-13T11:22:49;2.20;;;0.90;;
450;SDS011;212;48.748;9.174;2022-09-13T11:25:32;0.60;;;0.50;;
450;SDS011;212;48.748;9.174;2022-09-13T11:28:11;0.90;;;0.67;;
450;SDS011;212;48.748;9.174;2022-09-13T11:30:47;1.27;;;0.70;;
450;SDS011;212;48.748;9.174;2022-09-13T11:33:31;0.90;;;0.60;;
450;SDS011;212;48.748;9.174;2022-09-13T11:36:15;3.47;;;1.53;;
450;SDS011;212;48.748;9.174;2022-09-13T11:38:57;2.23;;;0.80;;
450;SDS011;212;48.748;9.174;2022-09-13T11:41:37;0.90;;;0.90;;
450;SDS011;212;48.748;9.174;2022-09-13T11:44:22;1.87;;;0.87;;
450;SDS011;212;48.748;9.174;2022-09-13T11:47:11;1.80;;;0.87;;
450;SDS011;212;48.748;9.174;2022-09-13T11:52:44;9.70;;;4.40;;
450;SDS011;212;48.748;9.174;2022-09-13T11:55:22;2.60;;;1.00;;
450;SDS011;212;48.748;9.174;2022-09-13T11:57:54;2.20;;;1.40;;
450;SDS011;212;48.748;9.174;2022-09-13T12:00:24;1.77;;;1.13;;
450;SDS011;212;48.748;9.174;2022-09-13T12:02:56;3.17;;;1.67;;
450;SDS011;212;48.748;9.174;2022-09-13T12:05:30;1.10;;;0.97;;
450;SDS011;212;48.748;9.174;2022-09-13T12:08:00;1.77;;;1.40;;
450;SDS011;212;48.748;9.174;2022-09-13T12:10:32;2.40;;;1.03;;
450;SDS011;212;48.748;9.174;2022-09-13T12:13:05;1.13;;;1.07;;
450;SDS011;212;48.748;9.174;2022-09-13T12:15:36;3.30;;;1.17;;
450;SDS011;212;48.748;9.174;2022-09-13T12:18:07;2.43;;;1.80;;
450;SDS011;212;48.748;9.174;2022-09-13T12:20:42;1.80;;;1.17;;
450;SDS011;212;48.748;9.174;2022-09-13T12:23:14;2.63;;;1.80;;
450;SDS011;212;48.748;9.174;2022-09-13T12:25:45;3.03;;;2.23;;
450;SDS011;212;48.748;9.174;2022-09-13T12:28:18;2.13;;;2.00;;
450;SDS011;212;48.748;9.174;2022-09-13T12:30:51;1.60;;;1.43;;
450;SDS011;212;48.748;9.174;2022-09-13T12:33:21;2.20;;;1.60;;
450;SDS011;212;48.748;9.174;2022-09-13T12:35:52;1.50;;;1.10;;
450;SDS011;212;48.748;9.174;2022-09-13T12:38:58;1.83;;;1.53;;
450;SDS011;212;48.748;9.174;2022-09-13T12:41:43;3.23;;;1.50;;
450;SDS011;212;48.748;9.174;2022-09-13T12:44:22;4.63;;;1.20;;
450;SDS011;212;48.748;9.174;2022-09-13T12:47:12;1.50;;;1.47;;
450;SDS011;212;48.748;9.174;2022-09-13T12:49:58;3.20;;;1.70;;
450;SDS011;212;48.748;9.174;2022-09-13T12:52:45;1.67;;;1.40;;
450;SDS011;212;48.748;9.174;2022-09-13T12:55:24;2.60;;;1.43;;
450;SDS011;212;48.748;9.174;2022-09-13T13:01:18;1.80;;;1.07;;
450;SDS011;212;48.748;9.174;2022-09-13T13:03:47;2.77;;;0.93;;
450;SDS011;212;48.748;9.174;2022-09-13T13:06:28;1.50;;;1.00;;
450;SDS011;212;48.748;9.174;2022-09-13T13:08:59;2.17;;;1.10;;
450;SDS011;212;48.748;9.174;2022-09-13T13:11:39;2.03;;;1.90;;
450;SDS011;212;48.748;9.174;2022-09-13T13:14:10;2.40;;;1.50;;
450;SDS011;212;48.748;9.174;2022-09-13T13:19:55;0.80;;;0.80;;
450;SDS011;212;48.748;9.174;2022-09-13T13:25:32;1.20;;;1.00;;
450;SDS011;212;48.748;9.174;2022-09-13T13:28:01;2.10;;;1.60;;
450;SDS011;212;48.748;9.174;2022-09-13T13:33:27;1.53;;;1.13;;
450;SDS011;212;48.748;9.174;2022-09-13T13:35:55;0.90;;;0.80;;
450;SDS011;212;48.748;9.174;2022-09-13T13:38:39;1.00;;;1.00;;
450;SDS011;212;48.748;9.174;2022-09-13T13:50:28;1.57;;;0.90;;
450;SDS011;212;48.748;9.174;2022-09-13T13:52:55;3.90;;;1.07;;
450;SDS011;212;48.748;9.174;2022-09-13T13:55:36;2.80;;;1.03;;
450;SDS011;212;48.748;9.174;2022-09-13T13:58:21;1.90;;;0.97;;
450;SDS011;212;48.748;9.174;2022-09-13T14:00:55;1.40;;;1.27;;
450;SDS011;212;48.748;9.174;2022-09-13T14:03:27;0.80;;;0.70;;
450;SDS011;212;48.748;9.174;2022-09-13T14:06:05;1.60;;;0.90;;
450;SDS011;212;48.748;9.174;2022-09-13T14:08:48;1.53;;;1.00;;
450;SDS011;212;48.748;9.174;2022-09-13T14:11:26;4.33;;;1.10;;
450;SDS011;212;48.748;9.174;2022-09-13T14:14:11;2.50;;;0.97;;
450;SDS011;212;48.748;9.174;2022-09-13T14:16:52;2.30;;;0.67;;
450;SDS011;212;48.748;9.174;2022-09-13T14:19:26;1.40;;;0.80;;
450;SDS011;212;48.748;9.174;2022-09-13T14:22:05;2.33;;;0.73;;
450;SDS011;212;48.748;9.174;2022-09-13T14:24:40;2.77;;;0.90;;
450;SDS011;212;48.748;9.174;2022-09-13T14:27:12;0.83;;;0.73;;
450;SDS011;212;48.748;9.174;2022-09-13T14:29:44;0.93;;;0.80;;
450;SDS011;212;48.748;9.174;2022-09-13T14:32:15;1.20;;;0.77;;
450;SDS011;212;48.748;9.174;2022-09-13T14:34:52;1.50;;;0.83;;
450;SDS011;212;48.748;9.174;2022-09-13T14:37:23;1.17;;;0.90;;
450;SDS011;212;48.748;9.174;2022-09-13T14:39:54;1.77;;;0.60;;
450;SDS011;212;48.748;9.174;2022-09-13T14:42:22;1.10;;;0.70;;
450;SDS011;212;48.748;9.174;2022-09-13T14:44:50;0.80;;;0.50;;
450;SDS011;212;48.748;9.174;2022-09-13T14:47:19;0.60;;;0.60;;
450;SDS011;212;48.748;9.174;2022-09-13T14:49:54;1.37;;;0.60;;
450;SDS011;212;48.748;9.174;2022-09-13T14:52:25;1.53;;;0.53;;
450;SDS011;212;48.748;9.174;2022-09-13T14:54:56;0.70;;;0.60;;
450;SDS011;212;48.748;9.174;2022-09-13T14:57:28;0.80;;;0.70;;
450;SDS011;212;48.748;9.174;2022-09-13T14:59:59;1.00;;;0.83;;
450;SDS011;212;48.748;9.174;2022-09-13T15:02:34;1.00;;;0.80;;
450;SDS011;212;48.748;9.174;2022-09-13T15:05:03;0.70;;;0.70;;
450;SDS011;212;48.748;9.174;2022-09-13T15:07:33;1.40;;;0.80;;
450;SDS011;212;48.748;9.174;2022-09-13T15:10:06;1.93;;;0.90;;
450;SDS011;212;48.748;9.174;2022-09-13T15:12:35;1.73;;;0.70;;
450;SDS011;212;48.748;9.174;2022-09-13T15:17:57;1.50;;;1.03;;
450;SDS011;212;48.748;9.174;2022-09-13T15:20:25;2.33;;;0.90;;
450;SDS011;212;48.748;9.174;2022-09-13T15:22:54;0.70;;;0.70;;
450;SDS011;212;48.748;9.174;2022-09-13T15:25:22;0.70;;;0.60;;
450;SDS011;212;48.748;9.174;2022-09-13T15:27:51;2.30;;;0.97;;
450;SDS011;212;48.748;9.174;2022-09-13T15:30:20;1.33;;;0.53;;
450;SDS011;212;48.748;9.174;2022-09-13T15:33:02;1.63;;;0.83;;
450;SDS011;212;48.748;9.174;2022-09-13T15:35:33;1.73;;;1.10;;
450;SDS011;212;48.748;9.174;2022-09-13T15:38:13;0.87;;;0.50;;
450;SDS011;212;48.748;9.174;2022-09-13T15:40:56;2.20;;;0.80;;
450;SDS011;212;48.748;9.174;2022-09-13T15:43:26;2.50;;;0.70;;
450;SDS011;212;48.748;9.174;2022-09-13T15:45:54;2.60;;;1.10;;
450;SDS011;212;48.748;9.174;2022-09-13T15:48:23;3.03;;;1.47;;
450;SDS011;212;48.748;9.174;2022-09-13T15:51:03;1.73;;;1.03;;
450;SDS011;212;48.748;9.174;2022-09-13T15:53:35;2.23;;;1.03;;
450;SDS011;212;48.748;9.174;2022-09-13T15:56:04;2.00;;;1.23;;
450;SDS011;212;48.748;9.174;2022-09-13T15:58:32;2.70;;;1.43;;
450;SDS011;212;48.748;9.174;2022-09-13T16:01:00;1.60;;;0.87;;
450;SDS011;212;48.748;9.174;2022-09-13T16:03:28;1.30;;;1.30;;
450;SDS011;212;48.748;9.174;2022-09-13T16:05:55;2.27;;;1.00;;
450;SDS011;212;48.748;9.174;2022-09-13T16:08:23;2.60;;;1.30;;
450;SDS011;212;48.748;9.174;2022-09-13T16:10:50;1.60;;;1.17;;
450;SDS011;212;48.748;9.174;2022-09-13T16:13:17;1.33;;;1.30;;
450;SDS011;212;48.748;9.174;2022-09-13T16:15:44;2.90;;;1.53;;
450;SDS011;212;48.748;9.174;2022-09-13T16:18:10;1.33;;;1.20;;
450;SDS011;212;48.748;9.174;2022-09-13T16:20:40;3.50;;;1.03;;
450;SDS011;212;48.748;9.174;2022-09-13T16:23:07;2.50;;;1.20;;
450;SDS011;212;48.748;9.174;2022-09-13T16:25:33;1.33;;;1.23;;
450;SDS011;212;48.748;9.174;2022-09-13T16:28:01;2.73;;;1.43;;
450;SDS011;212;48.748;9.174;2022-09-13T16:30:29;3.20;;;1.50;;
450;SDS011;212;48.748;9.174;2022-09-13T16:32:57;2.00;;;1.37;;
450;SDS011;212;48.748;9.174;2022-09-13T16:35:24;3.23;;;1.30;;
450;SDS011;212;48.748;9.174;2022-09-13T16:37:54;4.23;;;1.20;;
450;SDS011;212;48.748;9.174;2022-09-13T16:40:21;1.77;;;1.10;;
450;SDS011;212;48.748;9.174;2022-09-13T16:42:48;1.47;;;1.43;;
450;SDS011;212;48.748;9.174;2022-09-13T16:45:15;2.30;;;1.50;;